createdAt,value
2019-05-06T00:00:26.309Z,10.02
2019-05-06T00:01:24.865Z,10.02
2019-05-06T00:02:24.527Z,10.12
2019-05-06T00:03:21.976Z,10.14
2019-05-06T00:04:20.544Z,10.32
2019-05-06T00:05:19.119Z,10.29
2019-05-06T00:06:17.790Z,10.36
2019-05-06T00:07:16.450Z,10.36
2019-05-06T00:08:15.005Z,10.33
2019-05-06T00:09:14.678Z,10.4
2019-05-06T00:10:13.428Z,10.4
2019-05-06T00:11:10.944Z,10.29
2019-05-06T00:12:09.475Z,10.32
2019-05-06T00:13:08.060Z,10.17
2019-05-06T00:14:06.602Z,10.15
2019-05-06T00:15:05.367Z,10.2
2019-05-06T00:16:04.147Z,10.15
2019-05-06T00:17:03.841Z,10.09
2019-05-06T00:18:01.340Z,10.11
2019-05-06T00:19:00.030Z,9.9
2019-05-06T00:19:58.585Z,9.9
2019-05-06T00:20:57.515Z,9.79
2019-05-06T00:21:55.804Z,9.75
2019-05-06T00:22:54.664Z,9.76
2019-05-06T00:23:54.547Z,9.76
2019-05-06T00:24:51.603Z,9.64
2019-05-06T00:25:50.338Z,9.72
2019-05-06T00:26:48.890Z,9.72
2019-05-06T00:27:47.596Z,9.65
2019-05-06T00:28:46.203Z,9.72
2019-05-06T00:29:46.835Z,9.76
2019-05-06T00:30:43.839Z,9.89
2019-05-06T00:31:43.880Z,9.79
2019-05-06T00:32:40.423Z,9.75
2019-05-06T00:33:38.966Z,9.89
2019-05-06T00:34:37.663Z,10.05
2019-05-06T00:35:36.434Z,10.05
2019-05-06T00:36:35.000Z,10.05
2019-05-06T00:37:34.864Z,10.09
2019-05-06T00:38:33.973Z,10.07
2019-05-06T00:39:31.012Z,10.05
2019-05-06T00:40:29.747Z,10.09
2019-05-06T00:41:28.387Z,10.11
2019-05-06T00:42:26.952Z,10.11
2019-05-06T00:43:25.495Z,10.12
2019-05-06T00:44:24.119Z,10.11
2019-05-06T00:45:24.334Z,10.27
2019-05-06T00:46:21.273Z,10.27
2019-05-06T00:47:19.960Z,10.23
2019-05-06T00:48:18.533Z,10.26
2019-05-06T00:49:17.065Z,10.4
2019-05-06T00:50:15.863Z,10.34
2019-05-06T00:51:14.542Z,10.32
2019-05-06T00:52:13.614Z,10.29
2019-05-06T00:53:14.064Z,10.26
2019-05-06T00:54:10.472Z,10.29
2019-05-06T00:55:09.008Z,10.14
2019-05-06T00:56:07.700Z,10.15
2019-05-06T00:57:06.269Z,10.18
2019-05-06T00:58:04.836Z,10.2
2019-05-06T00:59:03.825Z,10.22
2019-05-06T01:00:04.136Z,10.15
2019-05-06T01:01:00.895Z,10.18
2019-05-06T01:01:59.556Z,10.08
2019-05-06T01:02:58.193Z,10.07
2019-05-06T01:03:56.753Z,9.99
2019-05-06T01:04:55.289Z,10.04
2019-05-06T01:05:54.323Z,10.04
2019-05-06T01:06:54.281Z,9.97
2019-05-06T01:07:50.986Z,10.05
2019-05-06T01:08:49.649Z,9.96
2019-05-06T01:09:48.684Z,10.17
2019-05-06T01:10:47.237Z,10.01
2019-05-06T01:11:45.891Z,9.93
2019-05-06T01:12:44.555Z,9.84
2019-05-06T01:13:43.784Z,9.91
2019-05-06T01:14:43.550Z,9.86
2019-05-06T01:15:40.551Z,9.79
2019-05-06T01:16:39.251Z,9.83
2019-05-06T01:17:37.930Z,9.86
2019-05-06T01:18:36.469Z,10.04
2019-05-06T01:19:35.054Z,9.96
2019-05-06T01:20:33.988Z,10.05
2019-05-06T01:21:34.115Z,10.05
2019-05-06T01:22:30.772Z,10.05
2019-05-06T01:23:29.532Z,10.11
2019-05-06T01:24:28.255Z,10.07
2019-05-06T01:25:26.822Z,10.08
2019-05-06T01:26:25.620Z,10.18
2019-05-06T01:27:24.198Z,10.25
2019-05-06T01:28:24.462Z,10.3
2019-05-06T01:29:21.500Z,10.32
2019-05-06T01:30:20.318Z,10.2
2019-05-06T01:31:18.962Z,10.17
2019-05-06T01:32:17.659Z,10.2
2019-05-06T01:33:16.248Z,10.15
2019-05-06T01:34:14.770Z,9.99
2019-05-06T01:35:14.011Z,10.07
2019-05-06T01:36:14.082Z,10.26
2019-05-06T01:37:10.624Z,10.08
2019-05-06T01:38:09.161Z,9.94
2019-05-06T01:39:08.151Z,9.89
2019-05-06T01:40:06.952Z,9.86
2019-05-06T01:41:05.663Z,9.86
2019-05-06T01:42:04.556Z,9.83
2019-05-06T01:43:03.583Z,9.86
2019-05-06T01:44:01.666Z,9.76
2019-05-06T01:45:00.370Z,9.76
2019-05-06T01:45:58.932Z,9.69
2019-05-06T01:46:57.487Z,9.78
2019-05-06T01:47:56.147Z,9.83
2019-05-06T01:48:54.739Z,9.72
2019-05-06T01:49:53.811Z,9.84
2019-05-06T01:50:53.508Z,9.75
2019-05-06T01:51:50.716Z,9.9
2019-05-06T01:52:49.351Z,9.87
2019-05-06T01:53:48.010Z,9.74
2019-05-06T01:54:46.836Z,9.87
2019-05-06T01:55:45.471Z,9.83
2019-05-06T01:56:44.610Z,9.86
2019-05-06T01:57:44.420Z,9.75
2019-05-06T01:58:41.570Z,9.64
2019-05-06T01:59:40.107Z,9.66
2019-05-06T02:00:39.539Z,9.6
2019-05-06T02:01:37.199Z,9.74
2019-05-06T02:02:35.727Z,9.71
2019-05-06T02:03:34.693Z,9.83
2019-05-06T02:04:33.691Z,9.84
2019-05-06T02:05:33.525Z,9.76
2019-05-06T02:08:13.481Z,9.72
2019-05-06T02:09:10.481Z,9.74
2019-05-06T02:10:09.030Z,9.58
2019-05-06T02:11:07.689Z,9.47
2019-05-06T02:12:06.241Z,9.5
2019-05-06T02:13:04.786Z,9.39
2019-05-06T02:14:04.726Z,9.43
2019-05-06T02:15:03.960Z,9.35
2019-05-06T02:16:00.672Z,9.32
2019-05-06T02:16:59.316Z,9.35
2019-05-06T02:17:58.102Z,9.31
2019-05-06T02:18:56.674Z,9.31
2019-05-06T02:19:55.236Z,9.33
2019-05-06T02:20:53.913Z,9.42
2019-05-06T02:21:54.212Z,9.53
2019-05-06T02:22:51.111Z,9.54
2019-05-06T02:23:49.787Z,9.51
2019-05-06T02:24:48.428Z,9.61
2019-05-06T02:25:46.968Z,9.64
2019-05-06T02:26:45.795Z,9.61
2019-05-06T02:27:44.596Z,9.54
2019-05-06T02:30:07.649Z,9.57
2019-05-06T02:31:06.316Z,9.56
2019-05-06T02:32:16.967Z,9.57
2019-05-06T02:33:04.316Z,9.51
2019-05-06T02:34:04.996Z,9.39
2019-05-06T02:35:01.007Z,9.43
2019-05-06T02:35:59.786Z,9.47
2019-05-06T02:36:58.486Z,9.64
2019-05-06T02:37:57.122Z,9.65
2019-05-06T02:38:56.169Z,9.4
2019-05-06T02:39:54.698Z,9.51
2019-05-06T02:40:53.572Z,9.46
2019-05-06T02:41:54.572Z,9.51
2019-05-06T02:42:53.970Z,9.56
2019-05-06T02:43:49.376Z,9.5
2019-05-06T02:44:48.289Z,9.54
2019-05-06T02:45:46.888Z,9.46
2019-05-06T02:46:45.490Z,9.56
2019-05-06T02:47:44.105Z,9.61
2019-05-06T02:48:43.315Z,9.69
2019-05-06T02:49:44.192Z,9.72
2019-05-06T02:50:42.557Z,9.83
2019-05-06T02:51:38.661Z,9.96
2019-05-06T02:52:37.379Z,9.83
2019-05-06T02:53:36.035Z,9.86
2019-05-06T02:54:34.879Z,9.79
2019-05-06T02:55:36.050Z,9.87
2019-05-06T02:56:33.282Z,9.93
2019-05-06T02:57:33.073Z,9.94
2019-05-06T02:58:28.990Z,10.02
2019-05-06T02:59:27.724Z,10.04
2019-05-06T03:00:26.414Z,9.99
2019-05-06T03:01:24.935Z,9.99
2019-05-06T03:02:37.895Z,10.01
2019-05-06T03:03:23.217Z,10.05
2019-05-06T03:04:23.341Z,10.11
2019-05-06T03:05:19.406Z,9.96
2019-05-06T03:06:17.981Z,10.04
2019-05-06T03:07:16.570Z,10.07
2019-05-06T03:08:15.119Z,10.02
2019-05-06T03:09:13.839Z,10.01
2019-05-06T03:10:12.949Z,10.09
2019-05-06T03:11:13.489Z,9.93
2019-05-06T03:12:09.837Z,9.99
2019-05-06T03:13:08.440Z,9.97
2019-05-06T03:14:07.001Z,10.02
2019-05-06T03:15:05.558Z,9.81
2019-05-06T03:16:05.715Z,9.83
2019-05-06T03:17:03.499Z,9.71
2019-05-06T03:18:03.142Z,9.78
2019-05-06T03:19:03.827Z,9.76
2019-05-06T03:19:58.819Z,9.91
2019-05-06T03:20:57.507Z,9.78
2019-05-06T03:21:56.066Z,9.86
2019-05-06T03:22:54.693Z,9.79
2019-05-06T03:23:54.142Z,9.81
2019-05-06T03:24:54.377Z,9.86
2019-05-06T03:25:52.933Z,9.96
2019-05-06T03:26:48.908Z,9.94
2019-05-06T03:27:47.638Z,9.99
2019-05-06T03:28:46.378Z,9.96
2019-05-06T03:29:44.968Z,9.86
2019-05-06T03:30:45.688Z,9.99
2019-05-06T03:31:46.207Z,10.01
2019-05-06T03:33:00.022Z,10.08
2019-05-06T03:33:54.869Z,10.17
2019-05-06T03:34:56.879Z,10.07
2019-05-06T03:35:51.876Z,10.05
2019-05-06T03:36:40.571Z,10.04
2019-05-06T03:37:34.415Z,10.12
2019-05-06T03:38:33.619Z,10.02
2019-05-06T03:39:33.743Z,10.14
2019-05-06T03:40:30.240Z,10.12
2019-05-06T03:41:28.793Z,10.04
2019-05-06T03:42:27.351Z,10.11
2019-05-06T03:43:26.160Z,10.09
2019-05-06T03:44:24.716Z,10.18
2019-05-06T03:45:23.748Z,10.23
2019-05-06T03:46:23.166Z,10.29
2019-05-06T03:47:23.061Z,10.26
2019-05-06T03:48:19.222Z,10.41
2019-05-06T03:49:17.940Z,10.23
2019-05-06T03:50:16.627Z,10.27
2019-05-06T03:51:15.144Z,10.12
2019-05-06T03:52:13.959Z,10.27
2019-05-06T03:53:13.991Z,10.26
2019-05-06T03:54:12.766Z,10.3
2019-05-06T03:55:10.228Z,10.32
2019-05-06T03:56:08.802Z,10.18
2019-05-06T03:57:07.507Z,10.27
2019-05-06T03:58:06.180Z,10.25
2019-05-06T03:59:04.820Z,10.3
2019-05-06T04:00:04.578Z,10.3
2019-05-06T04:01:03.690Z,10.17
2019-05-06T04:02:00.664Z,10.3
2019-05-06T04:02:59.313Z,10.3
2019-05-06T04:03:58.126Z,10.29
2019-05-06T04:04:57.038Z,10.26
2019-05-06T04:05:55.861Z,10.18
2019-05-06T04:06:54.016Z,10.26
2019-05-06T04:07:53.103Z,10.33
2019-05-06T04:08:52.845Z,10.2
2019-05-06T04:09:49.513Z,10.26
2019-05-06T04:10:48.013Z,10.25
2019-05-06T04:11:46.587Z,10.15
2019-05-06T04:12:45.156Z,10.2
2019-05-06T04:13:43.889Z,10.14
2019-05-06T04:14:43.297Z,10.27
2019-05-06T04:15:43.073Z,10.15
2019-05-06T04:16:39.869Z,10.2
2019-05-06T04:17:38.474Z,10.08
2019-05-06T04:18:37.015Z,10.12
2019-05-06T04:19:35.576Z,10.23
2019-05-06T04:20:34.440Z,10.22
2019-05-06T04:21:33.015Z,10.2
2019-05-06T04:22:33.227Z,10.2
2019-05-06T04:23:32.784Z,10.15
2019-05-06T04:24:28.716Z,10.08
2019-05-06T04:25:27.517Z,10.17
2019-05-06T04:26:26.176Z,10.18
2019-05-06T04:27:24.727Z,10.23
2019-05-06T04:28:23.882Z,10.15
2019-05-06T04:29:24.024Z,10.18
2019-05-06T04:30:24.017Z,10.14
2019-05-06T04:31:19.126Z,10.23
2019-05-06T04:32:18.133Z,10.27
2019-05-06T04:33:17.535Z,10.14
2019-05-06T04:34:19.315Z,10.15
2019-05-06T04:35:13.945Z,10.02
2019-05-06T04:36:13.101Z,10.12
2019-05-06T04:37:11.001Z,9.97
2019-05-06T04:38:09.714Z,9.99
2019-05-06T04:39:08.376Z,10.02
2019-05-06T04:40:06.948Z,9.94
2019-05-06T04:41:05.722Z,10.04
2019-05-06T04:42:04.394Z,10.12
2019-05-06T04:43:03.505Z,10.3
2019-05-06T04:44:02.862Z,10.33
2019-05-06T04:45:00.217Z,10.36
2019-05-06T04:45:58.781Z,10.38
2019-05-06T04:46:57.343Z,10.4
2019-05-06T04:47:56.185Z,10.38
2019-05-06T04:48:54.741Z,10.4
2019-05-06T04:49:53.417Z,10.52
2019-05-06T04:50:53.546Z,10.48
2019-05-06T04:51:53.834Z,10.63
2019-05-06T04:52:49.321Z,10.51
2019-05-06T04:53:48.081Z,10.51
2019-05-06T04:54:46.793Z,10.51
2019-05-06T04:55:45.481Z,10.52
2019-05-06T04:56:44.161Z,10.55
2019-05-06T04:57:43.921Z,10.45
2019-05-06T04:58:42.853Z,10.48
2019-05-06T04:59:40.013Z,10.6
2019-05-06T05:00:38.985Z,10.55
2019-05-06T05:01:37.673Z,10.53
2019-05-06T05:02:36.233Z,10.53
2019-05-06T05:03:34.911Z,10.56
2019-05-06T05:04:36.681Z,10.56
2019-05-06T05:05:33.202Z,10.71
2019-05-06T05:06:32.809Z,10.81
2019-05-06T05:09:14.617Z,10.84
2019-05-06T05:10:12.327Z,10.88
2019-05-06T05:11:08.345Z,10.97
2019-05-06T05:12:06.962Z,11
2019-05-06T05:13:05.658Z,11.09
2019-05-06T05:14:04.338Z,11.04
2019-05-06T05:15:03.308Z,10.96
2019-05-06T05:16:02.251Z,11.06
2019-05-06T05:17:02.159Z,11.02
2019-05-06T05:17:59.127Z,11.24
2019-05-06T05:18:57.768Z,11.29
2019-05-06T05:19:56.471Z,11.19
2019-05-06T05:20:55.026Z,11.14
2019-05-06T05:21:53.749Z,11.09
2019-05-06T05:22:52.856Z,11.18
2019-05-06T05:23:52.321Z,11.17
2019-05-06T05:24:51.938Z,11.19
2019-05-06T05:25:48.282Z,11.28
2019-05-06T05:26:47.172Z,11.22
2019-05-06T05:27:45.566Z,11.21
2019-05-06T05:28:44.245Z,11.19
2019-05-06T05:29:42.870Z,11.14
2019-05-06T05:30:42.906Z,11.18
2019-05-06T05:33:22.460Z,11.51
2019-05-06T05:34:22.426Z,11.64
2019-05-06T05:35:19.370Z,11.67
2019-05-06T05:36:18.048Z,11.7
2019-05-06T05:37:16.624Z,11.86
2019-05-06T05:38:15.174Z,11.86
2019-05-06T05:39:13.750Z,11.98
2019-05-06T05:40:12.928Z,11.94
2019-05-06T05:41:12.081Z,12.01
2019-05-06T05:42:09.509Z,11.83
2019-05-06T05:43:08.643Z,11.88
2019-05-06T05:44:07.088Z,11.86
2019-05-06T05:45:05.640Z,11.95
2019-05-06T05:46:04.225Z,11.86
2019-05-06T05:47:03.392Z,11.96
2019-05-06T05:48:02.780Z,12.09
2019-05-06T05:49:02.629Z,12.07
2019-05-06T05:49:59.270Z,12.07
2019-05-06T05:50:58.157Z,12.05
2019-05-06T05:51:56.685Z,11.98
2019-05-06T05:52:55.266Z,12.01
2019-05-06T05:53:54.103Z,12.05
2019-05-06T05:54:55.428Z,12.13
2019-05-06T05:55:52.699Z,12.02
2019-05-06T05:56:49.857Z,12.02
2019-05-06T05:57:48.492Z,12.01
2019-05-06T05:58:47.076Z,11.98
2019-05-06T05:59:45.783Z,11.96
2019-05-06T06:00:44.461Z,11.9
2019-05-06T06:01:43.510Z,12.04
2019-05-06T06:02:43.629Z,11.9
2019-05-06T06:03:42.143Z,11.79
2019-05-06T06:04:51.896Z,11.95
2019-05-06T06:05:37.901Z,11.98
2019-05-06T06:06:36.574Z,11.85
2019-05-06T06:07:35.616Z,11.9
2019-05-06T06:08:36.839Z,12.01
2019-05-06T06:09:32.955Z,12.16
2019-05-06T06:10:33.168Z,12.35
2019-05-06T06:11:32.585Z,12.47
2019-05-06T06:12:28.823Z,12.62
2019-05-06T06:13:27.425Z,12.6
2019-05-06T06:14:26.115Z,12.67
2019-05-06T06:15:24.729Z,12.64
2019-05-06T06:16:23.529Z,12.74
2019-05-06T06:19:03.631Z,12.93
2019-05-06T06:20:02.671Z,12.92
2019-05-06T06:21:14.321Z,13.01
2019-05-06T06:21:59.472Z,13.01
2019-05-06T06:22:58.125Z,13.1
2019-05-06T06:23:56.713Z,13.2
2019-05-06T06:25:57.464Z,13.3
2019-05-06T06:28:22.763Z,13.38
2019-05-06T06:29:22.649Z,13.38
2019-05-06T06:30:19.093Z,13.39
2019-05-06T06:31:17.788Z,13.33
2019-05-06T06:32:16.512Z,13.39
2019-05-06T06:33:15.052Z,13.46
2019-05-06T06:34:13.824Z,13.38
2019-05-06T06:35:14.590Z,13.45
2019-05-06T06:36:12.225Z,13.52
2019-05-06T06:37:09.652Z,13.44
2019-05-06T06:38:08.191Z,13.55
2019-05-06T06:39:06.745Z,13.59
2019-05-06T06:40:05.563Z,13.54
2019-05-06T06:41:04.324Z,13.59
2019-05-06T06:42:02.975Z,13.51
2019-05-06T06:43:02.128Z,13.62
2019-05-06T06:44:02.114Z,13.33
2019-05-06T06:44:58.806Z,13.14
2019-05-06T06:45:57.566Z,13.23
2019-05-06T06:46:56.439Z,13.23
2019-05-06T06:47:54.997Z,13.2
2019-05-06T06:48:53.597Z,13.14
2019-05-06T06:49:53.436Z,13.39
2019-05-06T06:50:52.206Z,13.55
2019-05-06T06:51:49.457Z,13.6
2019-05-06T06:52:48.200Z,13.71
2019-05-06T06:53:46.730Z,14.03
2019-05-06T06:54:45.400Z,14.27
2019-05-06T06:55:44.198Z,14.32
2019-05-06T06:56:42.788Z,14.17
2019-05-06T06:57:42.331Z,14.27
2019-05-06T06:58:41.705Z,14.28
2019-05-06T06:59:38.519Z,14.25
2019-05-06T07:00:37.079Z,14.39
2019-05-06T07:01:35.695Z,14.36
2019-05-06T07:02:34.351Z,14.6
2019-05-06T07:03:32.883Z,14.7
2019-05-06T07:04:32.387Z,14.88
2019-05-06T07:05:32.949Z,14.95
2019-05-06T07:06:29.144Z,15.09
2019-05-06T07:07:40.151Z,15.21
2019-05-06T07:08:34.753Z,15.46
2019-05-06T07:09:24.863Z,15.46
2019-05-06T07:10:23.457Z,15.36
2019-05-06T07:11:22.603Z,15.72
2019-05-06T07:12:23.246Z,15.76
2019-05-06T07:13:19.468Z,15.86
2019-05-06T07:14:18.314Z,15.78
2019-05-06T07:15:16.807Z,15.65
2019-05-06T07:16:15.586Z,15.6
2019-05-06T07:17:14.380Z,15.47
2019-05-06T07:18:13.635Z,15.51
2019-05-06T07:19:12.805Z,15.38
2019-05-06T07:20:13.085Z,15.5
2019-05-06T07:21:09.751Z,15.47
2019-05-06T07:22:08.264Z,15.44
2019-05-06T07:23:06.828Z,15.43
2019-05-06T07:24:05.533Z,15.35
2019-05-06T07:25:04.165Z,15.35
2019-05-06T07:26:03.123Z,15.51
2019-05-06T07:27:02.981Z,15.51
2019-05-06T07:28:02.712Z,15.39
2019-05-06T07:28:58.992Z,15.34
2019-05-06T07:29:57.358Z,15.39
2019-05-06T07:30:55.914Z,15.59
2019-05-06T07:31:54.558Z,15.72
2019-05-06T07:32:53.060Z,15.59
2019-05-06T07:33:52.203Z,15.46
2019-05-06T07:34:52.898Z,15.39
2019-05-06T07:35:48.925Z,15.31
2019-05-06T07:36:47.795Z,15.13
2019-05-06T07:37:46.571Z,15.09
2019-05-06T07:38:45.111Z,15.21
2019-05-06T07:39:43.853Z,15.13
2019-05-06T07:40:42.576Z,15.14
2019-05-06T07:41:45.319Z,15.34
2019-05-06T07:42:40.120Z,15.36
2019-05-06T07:43:38.688Z,15.51
2019-05-06T07:44:37.281Z,15.56
2019-05-06T07:45:36.096Z,15.67
2019-05-06T07:46:34.666Z,15.86
2019-05-06T07:47:33.320Z,15.75
2019-05-06T07:48:32.059Z,15.57
2019-05-06T07:49:32.746Z,15.57
2019-05-06T07:50:29.130Z,15.53
2019-05-06T07:51:27.685Z,15.23
2019-05-06T07:52:26.290Z,15.02
2019-05-06T07:53:24.857Z,15.07
2019-05-06T07:54:23.577Z,15.03
2019-05-06T07:55:22.895Z,15.14
2019-05-06T07:56:22.417Z,15.43
2019-05-06T07:57:21.912Z,15.35
2019-05-06T07:58:18.305Z,15.54
2019-05-06T07:59:16.885Z,15.67
2019-05-06T08:00:15.500Z,15.53
2019-05-06T08:01:14.598Z,15.57
2019-05-06T08:02:13.184Z,15.71
2019-05-06T08:03:13.961Z,15.74
2019-05-06T08:04:11.980Z,15.71
2019-05-06T08:05:09.132Z,15.6
2019-05-06T08:06:07.811Z,15.57
2019-05-06T08:07:06.554Z,15.59
2019-05-06T08:08:05.076Z,15.83
2019-05-06T08:09:03.761Z,15.89
2019-05-06T08:10:02.444Z,16.08
2019-05-06T08:11:02.624Z,16.14
2019-05-06T08:11:59.654Z,16.05
2019-05-06T08:12:58.370Z,16
2019-05-06T08:13:56.925Z,15.83
2019-05-06T08:14:55.902Z,15.82
2019-05-06T08:15:54.641Z,15.9
2019-05-06T08:16:53.282Z,16.04
2019-05-06T08:17:52.379Z,16.28
2019-05-06T08:18:52.282Z,16.24
2019-05-06T08:19:48.814Z,16.11
2019-05-06T08:20:47.468Z,16.12
2019-05-06T08:21:46.429Z,16.25
2019-05-06T08:22:44.993Z,16.12
2019-05-06T08:23:43.648Z,16.07
2019-05-06T08:24:42.314Z,16.05
2019-05-06T08:25:42.464Z,16.17
2019-05-06T08:26:39.316Z,16.25
2019-05-06T08:27:38.069Z,16.17
2019-05-06T08:28:41.139Z,16.2
2019-05-06T08:29:35.213Z,16
2019-05-06T08:30:34.120Z,15.92
2019-05-06T08:31:32.826Z,15.97
2019-05-06T08:32:32.127Z,15.6
2019-05-06T08:33:29.919Z,15.36
2019-05-06T08:36:12.216Z,15.21
2019-05-06T08:37:08.672Z,15.28
2019-05-06T08:38:07.220Z,15.28
2019-05-06T08:39:06.183Z,15.36
2019-05-06T08:40:04.768Z,15.56
2019-05-06T08:41:03.378Z,15.51
2019-05-06T08:42:02.611Z,15.75
2019-05-06T08:43:02.178Z,15.87
2019-05-06T08:43:59.284Z,15.87
2019-05-06T08:44:58.250Z,16
2019-05-06T08:45:56.883Z,16.11
2019-05-06T08:46:55.459Z,16.07
2019-05-06T08:47:53.999Z,16.05
2019-05-06T08:48:52.787Z,16.09
2019-05-06T08:49:52.680Z,16.07
2019-05-06T08:50:49.949Z,16.02
2019-05-06T08:51:48.658Z,16.17
2019-05-06T08:52:47.286Z,16.12
2019-05-06T08:53:45.874Z,16.11
2019-05-06T08:54:44.553Z,16.11
2019-05-06T08:55:43.127Z,16.17
2019-05-06T08:56:42.650Z,16.23
2019-05-06T09:04:13.453Z,16.35
2019-05-06T09:05:08.752Z,16.43
2019-05-06T09:06:07.578Z,16.35
2019-05-06T09:07:05.871Z,16.42
2019-05-06T09:08:04.561Z,16.43
2019-05-06T09:09:03.110Z,16.43
2019-05-06T09:10:02.478Z,16.43
2019-05-06T09:11:02.846Z,16.5
2019-05-06T09:11:59.110Z,16.6
2019-05-06T09:12:57.870Z,16.61
2019-05-06T09:13:56.420Z,16.53
2019-05-06T09:14:54.992Z,16.42
2019-05-06T09:15:53.564Z,16.2
2019-05-06T09:16:53.797Z,16.27
2019-05-06T09:17:52.591Z,16.33
2019-05-06T09:18:49.837Z,16.27
2019-05-06T09:19:48.555Z,16.3
2019-05-06T09:20:47.121Z,16.2
2019-05-06T09:21:46.443Z,16.31
2019-05-06T09:22:44.607Z,16.25
2019-05-06T09:23:43.171Z,16.46
2019-05-06T09:24:42.610Z,16.45
2019-05-06T09:25:42.431Z,16.43
2019-05-06T09:26:39.125Z,16.45
2019-05-06T09:27:37.671Z,16.53
2019-05-06T09:28:36.270Z,16.5
2019-05-06T09:29:34.895Z,16.45
2019-05-06T09:30:33.402Z,16.45
2019-05-06T09:31:32.218Z,16.25
2019-05-06T09:32:35.623Z,16.15
2019-05-06T09:33:29.686Z,16.09
2019-05-06T09:34:28.294Z,16.05
2019-05-06T09:35:27.023Z,16.11
2019-05-06T09:36:39.784Z,16.04
2019-05-06T09:37:24.512Z,16.14
2019-05-06T09:38:23.210Z,16.11
2019-05-06T09:39:22.802Z,16.12
2019-05-06T09:40:22.611Z,16.09
2019-05-06T09:41:19.012Z,16.15
2019-05-06T09:42:17.715Z,16.25
2019-05-06T09:43:16.548Z,16.11
2019-05-06T09:44:15.077Z,16.21
2019-05-06T09:45:13.873Z,16.04
2019-05-06T09:46:12.865Z,15.78
2019-05-06T09:47:12.704Z,15.96
2019-05-06T09:48:09.531Z,15.97
2019-05-06T09:49:08.333Z,15.96
2019-05-06T09:50:06.894Z,15.82
2019-05-06T09:51:05.503Z,15.72
2019-05-06T09:52:04.335Z,15.93
2019-05-06T09:53:02.874Z,15.92
2019-05-06T09:54:03.941Z,15.8
2019-05-06T09:55:02.985Z,15.84
2019-05-06T09:55:58.667Z,15.8
2019-05-06T09:56:57.202Z,15.74
2019-05-06T09:57:55.787Z,15.82
2019-05-06T09:58:54.387Z,15.93
2019-05-06T09:59:52.928Z,16.07
2019-05-06T10:00:51.484Z,16
2019-05-06T10:01:52.720Z,16.04
2019-05-06T10:02:49.523Z,16.17
2019-05-06T10:03:47.612Z,16.15
2019-05-06T10:04:46.243Z,16.09
2019-05-06T10:05:44.832Z,16.25
2019-05-06T10:06:55.611Z,16.07
2019-05-06T10:07:42.438Z,16.39
2019-05-06T10:08:41.123Z,16.56
2019-05-06T10:09:39.756Z,16.6
2019-05-06T10:10:38.355Z,16.7
2019-05-06T10:11:36.928Z,16.57
2019-05-06T10:12:35.616Z,16.57
2019-05-06T10:13:34.716Z,16.46
2019-05-06T10:14:33.353Z,16.25
2019-05-06T10:15:32.534Z,16.34
2019-05-06T10:16:32.478Z,16.39
2019-05-06T10:17:29.071Z,16.23
2019-05-06T10:18:27.743Z,16
2019-05-06T10:19:26.574Z,16.02
2019-05-06T10:20:25.138Z,15.89
2019-05-06T10:21:23.847Z,15.89
2019-05-06T10:22:23.271Z,15.94
2019-05-06T10:23:22.295Z,15.9
2019-05-06T10:24:19.596Z,15.96
2019-05-06T10:25:18.121Z,16.08
2019-05-06T10:26:16.721Z,16.23
2019-05-06T10:27:15.907Z,16.04
2019-05-06T10:28:14.522Z,15.89
2019-05-06T10:29:13.056Z,15.8
2019-05-06T10:30:12.489Z,15.64
2019-05-06T10:31:12.563Z,15.71
2019-05-06T10:32:08.756Z,15.68
2019-05-06T10:33:07.536Z,15.74
2019-05-06T10:34:06.376Z,15.89
2019-05-06T10:35:05.162Z,16.11
2019-05-06T10:36:03.710Z,16.08
2019-05-06T10:37:12.435Z,16.11
2019-05-06T10:38:02.919Z,16.27
2019-05-06T10:39:02.100Z,16.45
2019-05-06T10:39:58.723Z,16.52
2019-05-06T10:41:03.771Z,16.52
2019-05-06T10:41:55.991Z,16.63
2019-05-06T10:42:54.717Z,16.7
2019-05-06T10:43:53.323Z,16.73
2019-05-06T10:44:53.127Z,16.89
2019-05-06T10:45:52.011Z,17.07
2019-05-06T10:46:49.231Z,16.96
2019-05-06T10:47:47.894Z,16.98
2019-05-06T10:48:46.459Z,17.15
2019-05-06T10:49:45.036Z,17.07
2019-05-06T10:50:43.778Z,16.91
2019-05-06T10:51:42.768Z,17.11
2019-05-06T10:52:41.081Z,17.25
2019-05-06T10:53:42.308Z,17.11
2019-05-06T10:54:38.427Z,16.97
2019-05-06T10:55:36.998Z,17.08
2019-05-06T10:56:49.732Z,17.06
2019-05-06T10:57:34.349Z,17.03
2019-05-06T10:58:32.901Z,17.14
2019-05-06T10:59:32.570Z,16.85
2019-05-06T11:00:30.328Z,17
2019-05-06T11:01:28.886Z,17.21
2019-05-06T11:02:27.631Z,17.22
2019-05-06T11:03:27.623Z,17.01
2019-05-06T11:04:24.851Z,16.97
2019-05-06T11:05:23.451Z,16.85
2019-05-06T11:06:22.332Z,16.81
2019-05-06T11:07:29.173Z,16.96
2019-05-06T11:08:19.490Z,16.83
2019-05-06T11:09:18.154Z,16.67
2019-05-06T11:10:23.561Z,16.93
2019-05-06T11:11:24.773Z,16.97
2019-05-06T11:12:13.823Z,16.76
2019-05-06T11:13:12.884Z,16.61
2019-05-06T11:14:12.633Z,16.63
2019-05-06T11:15:09.608Z,16.71
2019-05-06T11:16:08.494Z,16.91
2019-05-06T11:17:07.027Z,17
2019-05-06T11:18:05.664Z,17.12
2019-05-06T11:19:05.123Z,17
2019-05-06T11:20:06.358Z,16.88
2019-05-06T11:21:03.373Z,16.79
2019-05-06T11:22:00.515Z,16.88
2019-05-06T11:22:59.078Z,16.79
2019-05-06T11:23:57.697Z,16.79
2019-05-06T11:24:56.443Z,16.89
2019-05-06T11:25:54.988Z,16.94
2019-05-06T11:26:54.012Z,17
2019-05-06T11:27:52.614Z,17.08
2019-05-06T11:28:52.007Z,17.01
2019-05-06T11:29:49.325Z,16.89
2019-05-06T11:30:48.334Z,17.15
2019-05-06T11:31:46.875Z,17.08
2019-05-06T11:32:45.444Z,17.4
2019-05-06T11:33:44.046Z,17.43
2019-05-06T11:34:42.609Z,17.55
2019-05-06T11:35:43.090Z,17.58
2019-05-06T11:36:39.952Z,17.55
2019-05-06T11:37:46.799Z,17.56
2019-05-06T11:38:37.320Z,17.55
2019-05-06T11:39:35.989Z,17.63
2019-05-06T11:40:34.715Z,17.49
2019-05-06T11:41:33.357Z,17.38
2019-05-06T11:42:35.627Z,17.38
2019-05-06T11:43:32.432Z,17.56
2019-05-06T11:44:29.632Z,17.48
2019-05-06T11:45:28.224Z,17.48
2019-05-06T11:46:26.811Z,17.56
2019-05-06T11:47:25.364Z,17.54
2019-05-06T11:48:24.067Z,17.55
2019-05-06T11:49:23.362Z,17.55
2019-05-06T11:50:21.965Z,17.62
2019-05-06T11:51:20.244Z,17.66
2019-05-06T11:52:18.797Z,17.68
2019-05-06T11:53:17.362Z,17.66
2019-05-06T11:54:20.634Z,17.66
2019-05-06T11:55:27.042Z,17.79
2019-05-06T11:56:13.094Z,17.55
2019-05-06T11:57:12.368Z,17.81
2019-05-06T11:58:12.642Z,18
2019-05-06T11:59:09.060Z,18.11
2019-05-06T12:00:07.760Z,18.05
2019-05-06T12:01:06.486Z,17.87
2019-05-06T12:02:05.043Z,18.02
2019-05-06T12:03:03.608Z,18.02
2019-05-06T12:04:02.778Z,17.92
2019-05-06T12:05:02.250Z,17.97
2019-05-06T12:05:59.790Z,17.95
2019-05-06T12:07:10.103Z,17.93
2019-05-06T12:08:04.341Z,17.96
2019-05-06T12:08:55.684Z,18.14
2019-05-06T12:09:54.606Z,18.07
2019-05-06T12:10:52.777Z,17.9
2019-05-06T12:11:52.809Z,17.93
2019-05-06T12:12:50.358Z,17.99
2019-05-06T12:13:48.937Z,18.07
2019-05-06T12:14:47.462Z,18.1
2019-05-06T12:15:46.160Z,18.21
2019-05-06T12:16:44.734Z,18.1
2019-05-06T12:17:43.305Z,17.99
2019-05-06T12:18:42.287Z,17.71
2019-05-06T12:19:40.441Z,17.77
2019-05-06T12:20:39.030Z,17.84
2019-05-06T12:21:37.818Z,17.68
2019-05-06T12:22:36.632Z,17.56
2019-05-06T12:23:35.771Z,17.55
2019-05-06T12:24:33.821Z,17.55
2019-05-06T12:25:33.670Z,17.48
2019-05-06T12:26:32.548Z,17.52
2019-05-06T12:27:32.642Z,17.52
2019-05-06T12:28:29.867Z,17.48
2019-05-06T12:29:28.436Z,17.41
2019-05-06T12:30:27.048Z,17.11
2019-05-06T12:31:25.833Z,16.97
2019-05-06T12:32:24.546Z,16.76
2019-05-06T12:33:23.139Z,16.78
2019-05-06T12:34:21.922Z,16.7
2019-05-06T12:35:20.464Z,16.88
2019-05-06T12:36:19.059Z,16.94
2019-05-06T12:37:17.678Z,16.76
2019-05-06T12:38:27.301Z,16.67
2019-05-06T12:39:17.266Z,16.58
2019-05-06T12:40:13.804Z,16.53
2019-05-06T12:41:13.868Z,16.7
2019-05-06T12:42:11.079Z,16.53
2019-05-06T12:43:09.701Z,16.42
2019-05-06T12:44:08.276Z,16.15
2019-05-06T12:45:06.835Z,16.08
2019-05-06T12:46:05.426Z,16.15
2019-05-06T12:47:04.068Z,16.27
2019-05-06T12:48:03.170Z,16.24
2019-05-06T12:49:03.106Z,16.34
2019-05-06T12:50:02.472Z,16.42
2019-05-06T12:50:58.676Z,16.39
2019-05-06T12:51:57.256Z,16.43
2019-05-06T12:52:57.796Z,16.5
2019-05-06T12:53:54.329Z,16.52
2019-05-06T12:54:54.170Z,16.71
2019-05-06T12:55:52.005Z,16.76
2019-05-06T12:56:51.845Z,16.97
2019-05-06T12:57:49.084Z,17.06
2019-05-06T12:58:47.739Z,17.19
2019-05-06T12:59:46.413Z,17.14
2019-05-06T13:00:45.196Z,17
2019-05-06T13:01:45.305Z,16.88